Time;durP1;ratioP1;P1;durP2;ratioP2;P2;SDS_P1;SDS_P2;PMS_P1;PMS_P2;Temp;Humidity;BMP_temperature;BMP_pressure;BME280_temperature;BME280_humidity;BME280_pressure;Samples;Min_cycle;Max_cycle;Signal;HPM_P1;HPM_P2
2021/11/14 00:00:25;;;;;;;8.03;7.23;;;;;;;9.02;100.00;95534.41;5013853;28;20318;-82
2021/11/14 00:02:51;;;;;;;8.43;6.90;;;;;;;9.07;100.00;95529.56;5027818;28;20198;-81
2021/11/14 00:05:18;;;;;;;8.00;7.07;;;;;;;9.12;100.00;95526.47;5037683;28;20221;-81
2021/11/14 00:07:45;;;;;;;8.20;6.77;;;;;;;9.16;100.00;95522.63;5038168;28;20209;-81
2021/11/14 00:10:11;;;;;;;8.33;6.83;;;;;;;9.16;99.65;95523.41;5038269;28;20596;-81
2021/11/14 00:12:38;;;;;;;7.43;6.70;;;;;;;9.18;99.83;95524.06;5037785;28;20232;-82
2021/11/14 00:15:06;;;;;;;7.17;6.47;;;;;;;9.20;99.86;95518.75;5037755;28;20210;-81
2021/11/14 00:17:34;;;;;;;8.90;7.03;;;;;;;9.21;99.44;95518.56;5037784;28;20202;-81
2021/11/14 00:20:01;;;;;;;7.53;6.80;;;;;;;9.22;99.33;95520.19;5037033;28;20244;-81
2021/11/14 00:22:27;;;;;;;8.10;7.30;;;;;;;9.17;99.59;95513.94;5021426;28;20206;-82
2021/11/14 00:24:54;;;;;;;7.97;7.13;;;;;;;9.15;99.88;95515.88;5017119;28;20206;-82
2021/11/14 00:27:21;;;;;;;8.27;7.47;;;;;;;9.12;100.00;95511.88;5017462;28;20677;-82
2021/11/14 00:29:49;;;;;;;7.93;7.20;;;;;;;9.12;100.00;95511.88;5016833;28;20399;-81
2021/11/14 00:32:16;;;;;;;7.23;6.53;;;;;;;9.16;100.00;95513.16;5017442;28;20302;-81
2021/11/14 00:34:43;;;;;;;7.87;7.17;;;;;;;9.17;100.00;95511.38;5016858;28;20387;-82
2021/11/14 00:37:10;;;;;;;7.70;7.00;;;;;;;9.19;99.53;95512.00;5017460;28;20209;-81
2021/11/14 00:39:36;;;;;;;8.23;6.97;;;;;;;9.19;99.42;95512.81;5017011;28;20219;-82
2021/11/14 00:42:03;;;;;;;7.63;6.93;;;;;;;9.19;99.45;95510.25;5017007;28;20624;-82
2021/11/14 00:44:29;;;;;;;7.87;6.80;;;;;;;9.21;99.32;95510.88;5016847;28;20207;-82
2021/11/14 00:46:56;;;;;;;7.30;6.43;;;;;;;9.22;99.40;95516.81;5017027;28;20210;-82
2021/11/14 00:49:22;;;;;;;9.73;7.40;;;;;;;9.21;99.73;95515.22;5016884;28;20230;-82
2021/11/14 00:51:50;;;;;;;8.00;7.20;;;;;;;9.22;99.98;95522.75;5016146;28;20766;-82
2021/11/14 00:54:17;;;;;;;8.00;7.20;;;;;;;9.21;99.83;95528.84;5016824;28;20203;-81
2021/11/14 00:56:43;;;;;;;7.80;7.00;;;;;;;9.23;99.56;95526.91;5016383;28;20206;-82
2021/11/14 00:59:10;;;;;;;6.87;6.27;;;;;;;9.22;99.75;95527.88;5016493;28;20231;-81
2021/11/14 01:01:37;;;;;;;7.40;6.70;;;;;;;9.23;99.37;95531.25;5018722;28;20297;-81
2021/11/14 01:04:03;;;;;;;7.77;6.80;;;;;;;9.24;99.33;95531.06;5036544;28;20614;-81
2021/11/14 01:06:30;;;;;;;8.30;7.27;;;;;;;9.24;99.25;95532.81;5036422;28;20206;-82
2021/11/14 01:08:58;;;;;;;7.27;6.20;;;;;;;9.25;99.23;95530.09;5036174;28;20611;-82
2021/11/14 01:11:25;;;;;;;7.40;6.57;;;;;;;9.26;99.31;95536.84;5036505;28;20202;-81
2021/11/14 01:13:52;;;;;;;7.97;6.87;;;;;;;9.26;99.07;95534.25;5036180;28;20455;-82
2021/11/14 01:16:21;;;;;;;7.47;6.77;;;;;;;9.26;98.98;95533.47;5035848;28;20230;-81
2021/11/14 01:18:47;;;;;;;7.30;6.60;;;;;;;9.27;98.99;95542.78;5036241;28;20202;-81
2021/11/14 01:21:16;;;;;;;7.50;6.80;;;;;;;9.23;99.26;95529.50;5036368;28;20717;-81
2021/11/14 01:23:44;;;;;;;7.63;6.90;;;;;;;9.22;99.34;95537.38;5036111;28;20202;-82
2021/11/14 01:26:12;;;;;;;7.23;6.50;;;;;;;9.21;99.68;95539.13;5036494;28;20206;-81
2021/11/14 01:28:39;;;;;;;7.30;6.30;;;;;;;9.21;99.88;95538.31;5036279;28;20205;-82
2021/11/14 01:31:06;;;;;;;8.73;7.03;;;;;;;9.18;100.00;95543.81;5036304;28;20210;-81
2021/11/14 01:33:33;;;;;;;7.60;6.87;;;;;;;9.17;100.00;95544.78;5035542;28;20272;-82
2021/11/14 01:36:00;;;;;;;7.77;6.97;;;;;;;9.15;100.00;95544.94;5036088;28;20206;-82
2021/11/14 01:38:28;;;;;;;7.23;6.50;;;;;;;9.14;100.00;95545.91;5022110;28;20257;-82
2021/11/14 01:40:57;;;;;;;7.23;6.53;;;;;;;9.16;100.00;95541.41;5016784;28;20264;-82
2021/11/14 01:43:28;;;;;;;8.03;6.73;;;;;;;9.21;100.00;95546.03;5016434;28;20248;-82
2021/11/14 01:45:56;;;;;;;7.43;6.53;;;;;;;9.22;100.00;95535.59;5015789;28;20729;-81
2021/11/14 01:48:23;;;;;;;8.33;6.53;;;;;;;9.24;99.74;95530.25;5016248;28;20195;-81
2021/11/14 01:50:50;;;;;;;7.80;6.60;;;;;;;9.24;99.51;95533.63;5015985;28;20234;-81
2021/11/14 01:53:17;;;;;;;7.30;6.60;;;;;;;9.25;99.22;95531.84;5015548;28;20233;-81
2021/11/14 01:55:46;;;;;;;7.10;6.40;;;;;;;9.27;99.21;95542.78;5015881;28;20206;-82
2021/11/14 01:58:18;;;;;;;7.43;6.73;;;;;;;9.28;99.30;95532.31;5015724;28;20238;-82
2021/11/14 02:00:53;;;;;;;6.93;6.23;;;;;;;9.28;99.39;95536.66;5015748;28;20315;-82
2021/11/14 02:03:27;;;;;;;7.80;7.00;;;;;;;9.29;99.47;95533.13;5031467;28;20251;-81
2021/11/14 02:08:48;;;;;;;8.17;7.07;;;;;;;9.31;99.45;95526.84;5034062;28;20214;-81
2021/11/14 02:11:18;;;;;;;8.77;6.63;;;;;;;9.33;99.35;95529.25;5035902;28;20193;-81
2021/11/14 02:13:50;;;;;;;7.07;6.37;;;;;;;9.33;99.13;95529.25;5026795;28;20745;-81
2021/11/14 02:16:22;;;;;;;6.87;6.17;;;;;;;9.35;98.84;95535.03;5015236;28;20203;-81
2021/11/14 02:18:52;;;;;;;6.90;6.20;;;;;;;9.35;99.00;95530.69;5014550;28;20217;-82
2021/11/14 02:21:28;;;;;;;6.70;5.87;;;;;;;9.37;98.81;95530.53;5015330;28;20234;-81
2021/11/14 02:24:03;;;;;;;6.40;5.80;;;;;;;9.38;98.51;95529.56;5014760;28;20204;-81
2021/11/14 02:26:30;;;;;;;6.00;5.43;;;;;;;9.38;98.55;95519.28;5014714;28;20621;-81
2021/11/14 02:29:31;;;;;;;7.30;5.70;;;;;;;9.38;98.88;95526.97;5015248;28;20203;-82
2021/11/14 02:31:58;;;;;;;6.27;5.67;;;;;;;9.37;99.27;95527.94;4986587;28;20821;-82
2021/11/14 02:37:17;;;;;;;6.17;5.57;;;;;;;9.39;99.10;95520.06;5013497;28;20214;-81
2021/11/14 02:39:46;;;;;;;6.37;5.77;;;;;;;9.35;100.00;95522.19;5014897;28;20221;-81
2021/11/14 02:42:17;;;;;;;6.10;5.50;;;;;;;9.28;100.00;95524.63;5014684;28;20576;-81
2021/11/14 02:44:47;;;;;;;7.43;6.40;;;;;;;9.25;100.00;95514.69;5015270;28;20202;-82
2021/11/14 02:47:22;;;;;;;6.83;6.17;;;;;;;9.26;100.00;95523.97;5014670;28;20210;-81
2021/11/14 02:49:52;;;;;;;6.27;5.67;;;;;;;9.27;100.00;95527.34;5014734;28;20861;-82
2021/11/14 02:52:25;;;;;;;7.00;6.30;;;;;;;9.28;100.00;95529.75;5014767;28;20231;-81
2021/11/14 02:54:54;;;;;;;7.00;6.30;;;;;;;9.30;100.00;95529.59;5015304;28;20203;-82
2021/11/14 02:57:23;;;;;;;7.07;6.37;;;;;;;9.31;100.00;95534.56;5015016;28;20970;-82
2021/11/14 02:59:49;;;;;;;9.07;6.63;;;;;;;9.34;100.00;95536.00;5015049;28;20237;-81
2021/11/14 03:02:23;;;;;;;6.93;6.30;;;;;;;9.35;100.00;95535.03;5021548;28;20633;-82
2021/11/14 03:04:50;;;;;;;6.93;6.17;;;;;;;9.34;100.00;95523.94;5034144;28;20611;-82
2021/11/14 03:07:20;;;;;;;7.00;6.30;;;;;;;9.33;100.00;95529.25;5033702;28;20202;-81
2021/11/14 03:09:50;;;;;;;7.07;6.37;;;;;;;9.31;100.00;95524.28;5034330;28;20222;-81
2021/11/14 03:12:17;;;;;;;6.90;6.30;;;;;;;9.32;100.00;95531.03;5034346;28;20270;-82
2021/11/14 03:14:46;;;;;;;8.93;5.97;;;;;;;9.34;100.00;95528.28;5034204;28;20224;-81
2021/11/14 03:17:16;;;;;;;7.43;6.07;;;;;;;9.32;100.00;95527.66;5033833;28;20688;-82
2021/11/14 03:19:47;;;;;;;7.17;6.47;;;;;;;9.31;100.00;95534.56;5033571;28;20707;-82
2021/11/14 03:22:16;;;;;;;7.77;6.97;;;;;;;9.30;100.00;95532.16;5034530;28;20286;-81
2021/11/14 03:24:59;;;;;;;8.13;6.47;;;;;;;9.30;100.00;95534.72;5033399;28;20301;-82
2021/11/14 03:27:29;;;;;;;7.80;7.00;;;;;;;9.28;100.00;95532.31;5034125;28;20202;-81
2021/11/14 03:30:11;;;;;;;8.47;6.70;;;;;;;9.31;100.00;95542.28;5016042;28;20234;-81
2021/11/14 03:32:42;;;;;;;6.87;6.23;;;;;;;9.33;100.00;95539.53;5014264;28;20203;-81
2021/11/14 03:35:09;;;;;;;7.47;6.70;;;;;;;9.33;100.00;95537.75;5013243;28;20597;-81
2021/11/14 03:37:35;;;;;;;7.80;7.03;;;;;;;9.33;100.00;95535.19;5013148;28;20202;-82
2021/11/14 03:40:24;;;;;;;8.27;6.83;;;;;;;9.36;100.00;95541.78;5013733;28;20227;-81
2021/11/14 03:42:52;;;;;;;8.27;7.17;;;;;;;9.37;100.00;95540.81;5014352;28;20199;-81
2021/11/14 03:45:19;;;;;;;8.43;7.53;;;;;;;9.38;100.00;95539.03;5013964;28;20215;-82
2021/11/14 03:47:45;;;;;;;7.80;7.10;;;;;;;9.31;100.00;95537.13;5013746;28;20285;-81
2021/11/14 03:50:17;;;;;;;8.33;7.50;;;;;;;9.31;100.00;95539.69;5013984;28;20592;-81
2021/11/14 03:52:54;;;;;;;;;;;;;;;;;;;;;
2021/11/14 03:55:28;;;;;;;8.90;7.53;;;;;;;9.36;100.00;95544.34;5019087;28;20202;-81
2021/11/14 03:57:59;;;;;;;8.33;7.50;;;;;;;9.35;100.00;95540.16;5016128;28;20370;-82
2021/11/14 04:00:28;;;;;;;8.10;7.30;;;;;;;9.35;100.00;95535.84;5020198;28;20249;-82
2021/11/14 04:03:02;;;;;;;8.27;6.73;;;;;;;9.33;100.00;95535.19;5029958;28;20209;-81
2021/11/14 04:05:32;;;;;;;8.03;7.23;;;;;;;9.30;100.00;95537.28;5014934;28;20199;-82
2021/11/14 04:08:01;;;;;;;8.07;7.27;;;;;;;9.30;100.00;95532.16;5018602;28;20190;-81
2021/11/14 04:10:33;;;;;;;8.37;7.53;;;;;;;9.29;100.00;95528.78;5033450;28;20594;-82
2021/11/14 04:12:59;;;;;;;8.67;7.70;;;;;;;9.30;100.00;95535.53;5031297;28;20199;-81
2021/11/14 04:15:31;;;;;;;8.57;7.67;;;;;;;9.28;100.00;95537.47;5013426;28;20222;-81
2021/11/14 04:18:00;;;;;;;8.37;7.47;;;;;;;9.29;100.00;95538.25;5029878;28;20198;-80
2021/11/14 04:20:34;;;;;;;9.27;8.30;;;;;;;9.33;100.00;95542.91;5033171;28;20230;-81
2021/11/14 04:23:10;;;;;;;9.57;8.63;;;;;;;9.28;100.00;95536.66;5033086;28;20202;-81
2021/11/14 04:25:42;;;;;;;8.93;7.90;;;;;;;9.30;100.00;95540.66;5033198;28;20213;-81
2021/11/14 04:28:29;;;;;;;12.13;9.37;;;;;;;9.25;100.00;95542.13;5033590;28;20225;-81
2021/11/14 04:31:00;;;;;;;10.47;7.70;;;;;;;9.24;100.00;95545.66;5022412;28;20253;-81
2021/11/14 04:33:29;;;;;;;9.50;8.37;;;;;;;9.25;100.00;95552.41;5029666;28;20195;-81
2021/11/14 04:35:58;;;;;;;9.30;8.40;;;;;;;9.24;100.00;95543.91;5013233;28;20214;-81
2021/11/14 04:38:29;;;;;;;9.00;8.00;;;;;;;9.24;100.00;95543.09;5012760;28;20226;-82
2021/11/14 04:41:07;;;;;;;8.20;7.30;;;;;;;9.26;100.00;95541.97;5013144;28;20215;-81
2021/11/14 04:46:17;;;;;;;8.17;7.37;;;;;;;9.32;100.00;95543.88;5006216;28;20693;-82
2021/11/14 04:48:46;;;;;;;8.03;7.27;;;;;;;9.33;100.00;95549.81;5014983;28;20475;-81
2021/11/14 04:51:33;;;;;;;8.37;7.27;;;;;;;9.33;100.00;95555.75;5016114;28;20222;-81
2021/11/14 04:54:00;;;;;;;8.67;7.77;;;;;;;9.33;100.00;95553.19;5006900;28;20210;-81
2021/11/14 04:56:30;;;;;;;8.47;7.67;;;;;;;9.30;100.00;95550.94;5017048;28;20195;-81
2021/11/14 04:58:56;;;;;;;9.77;8.20;;;;;;;9.32;100.00;95561.06;5016635;28;20214;-82
2021/11/14 05:01:33;;;;;;;9.50;7.57;;;;;;;9.33;100.00;95555.75;5016241;28;20215;-82
2021/11/14 05:04:14;;;;;;;8.37;7.57;;;;;;;9.34;100.00;95553.97;4996613;28;20198;-81
2021/11/14 05:06:43;;;;;;;8.50;7.70;;;;;;;9.35;100.00;95560.72;5000329;28;20199;-81
2021/11/14 05:09:12;;;;;;;8.80;7.50;;;;;;;9.32;100.00;95556.72;5015656;28;20218;-81
2021/11/14 05:11:42;;;;;;;8.87;7.97;;;;;;;9.29;100.00;95558.81;5016487;28;20760;-81
2021/11/14 05:14:11;;;;;;;9.57;8.20;;;;;;;9.30;100.00;95557.84;5016965;28;20273;-82
2021/11/14 05:16:46;;;;;;;9.10;8.20;;;;;;;9.33;100.00;95565.22;5016351;28;20921;-81
2021/11/14 05:19:13;;;;;;;10.97;8.23;;;;;;;9.31;100.00;95562.81;5016346;28;20226;-81
2021/11/14 05:21:41;;;;;;;9.83;8.77;;;;;;;9.30;100.00;95563.00;5016182;28;20225;-82
2021/11/14 05:24:11;;;;;;;12.00;9.50;;;;;;;9.30;100.00;95568.13;5016653;28;20925;-82
2021/11/14 05:26:37;;;;;;;11.53;9.23;;;;;;;9.29;100.00;95575.03;5016471;28;20239;-82
2021/11/14 05:29:08;;;;;;;13.70;9.93;;;;;;;9.30;100.00;95568.94;5015487;28;20908;-82
2021/11/14 05:31:44;;;;;;;12.33;9.43;;;;;;;9.29;100.00;95574.22;5015932;28;20741;-82
2021/11/14 05:37:01;;;;;;;10.80;9.67;;;;;;;9.33;100.00;95575.50;4935409;28;20284;-82
2021/11/14 05:39:30;;;;;;;17.07;11.30;;;;;;;9.30;100.00;95570.69;4996177;28;20266;-81
2021/11/14 05:42:14;;;;;;;15.23;11.30;;;;;;;9.33;100.00;95575.50;4996136;28;20224;-81
2021/11/14 05:44:45;;;;;;;14.80;11.30;;;;;;;9.33;100.00;95575.50;4995779;28;20581;-81
2021/11/14 05:47:11;;;;;;;17.03;11.70;;;;;;;9.33;100.00;95578.88;4996224;28;20203;-82
2021/11/14 05:49:38;;;;;;;15.10;11.60;;;;;;;9.34;100.00;95577.91;4996455;28;20310;-82
2021/11/14 05:52:05;;;;;;;16.07;11.43;;;;;;;9.35;100.00;95581.28;4996412;28;20286;-81
2021/11/14 05:54:32;;;;;;;17.27;11.53;;;;;;;9.34;100.00;95585.63;4995882;28;20282;-81
2021/11/14 05:56:58;;;;;;;16.73;11.60;;;;;;;9.35;100.00;95584.66;4995958;28;20214;-81
2021/11/14 05:59:32;;;;;;;15.90;11.33;;;;;;;9.37;100.00;95591.38;4996012;28;20322;-82
2021/11/14 06:02:04;;;;;;;13.80;11.70;;;;;;;9.35;100.00;95594.13;5008251;28;20289;-81
2021/11/14 06:04:35;;;;;;;15.23;11.90;;;;;;;9.35;100.00;95597.50;5016091;28;20207;-82
2021/11/14 06:07:01;;;;;;;17.10;12.00;;;;;;;9.35;100.00;95601.84;5014833;28;20203;-81
2021/11/14 06:09:27;;;;;;;17.60;12.40;;;;;;;9.34;100.00;95611.31;5014914;28;20223;-81
2021/11/14 06:11:55;;;;;;;15.73;11.83;;;;;;;9.36;100.00;95611.16;5015136;28;20629;-81
2021/11/14 06:14:21;;;;;;;16.23;11.93;;;;;;;9.36;100.00;95608.56;5016323;28;20715;-82
2021/11/14 06:16:48;;;;;;;15.33;11.70;;;;;;;9.37;100.00;95614.50;5016782;28;20213;-81
2021/11/14 06:19:16;;;;;;;13.90;11.00;;;;;;;9.37;100.00;95619.66;5016340;28;20621;-81
2021/11/14 06:21:43;;;;;;;11.40;9.63;;;;;;;9.34;100.00;95615.66;5015978;28;20203;-81
2021/11/14 06:24:09;;;;;;;12.90;10.37;;;;;;;9.33;100.00;95624.31;5015974;28;20207;-81
2021/11/14 06:26:35;;;;;;;13.60;11.50;;;;;;;9.33;100.00;95627.69;5014514;28;20214;-82
2021/11/14 06:29:02;;;;;;;16.43;12.70;;;;;;;9.30;100.00;95622.88;5014429;28;20234;-82
2021/11/14 06:31:28;;;;;;;18.90;14.07;;;;;;;9.24;100.00;95633.00;5014946;28;20226;-81
2021/11/14 06:33:55;;;;;;;19.43;14.37;;;;;;;9.25;100.00;95632.06;5016235;28;20826;-82
2021/11/14 06:36:23;;;;;;;21.57;15.43;;;;;;;9.26;100.00;95636.22;5032749;28;20205;-82
2021/11/14 06:38:51;;;;;;;20.77;15.03;;;;;;;9.24;100.00;95640.72;5022790;28;20203;-81
2021/11/14 06:41:18;;;;;;;19.63;14.47;;;;;;;9.24;100.00;95638.94;5015882;28;20209;-81
2021/11/14 06:43:44;;;;;;;20.43;15.40;;;;;;;9.23;100.00;95637.38;5015048;28;20219;-82
2021/11/14 06:46:11;;;;;;;22.27;15.53;;;;;;;9.18;100.00;95646.53;5015236;28;20202;-81
2021/11/14 06:48:38;;;;;;;19.43;15.63;;;;;;;9.15;100.00;95655.38;5014854;28;20223;-81
2021/11/14 06:51:05;;;;;;;21.40;15.70;;;;;;;9.10;100.00;95655.06;5014099;28;20231;-81
2021/11/14 06:53:33;;;;;;;20.67;16.07;;;;;;;9.14;100.00;95660.69;5013133;28;20249;-82
2021/11/14 06:56:00;;;;;;;21.97;16.87;;;;;;;9.15;100.00;95655.38;5014161;28;20202;-81
2021/11/14 06:58:27;;;;;;;20.17;16.20;;;;;;;9.19;100.00;95651.53;5013483;28;20210;-81
2021/11/14 07:00:55;;;;;;;20.70;16.40;;;;;;;9.20;100.00;95653.13;5013770;28;20218;-81
2021/11/14 07:03:21;;;;;;;21.40;17.33;;;;;;;9.23;100.00;95659.69;5013944;28;20207;-81
2021/11/14 07:05:47;;;;;;;21.23;16.43;;;;;;;9.23;100.00;95659.69;5013443;28;20207;-81
2021/11/14 07:08:15;;;;;;;24.33;16.93;;;;;;;9.24;100.00;95656.13;5013931;28;20202;-81
2021/11/14 07:10:43;;;;;;;22.63;17.40;;;;;;;9.27;100.00;95650.66;5013434;28;20229;-81
2021/11/14 07:13:09;;;;;;;22.30;17.27;;;;;;;9.28;100.00;95660.78;5014448;28;20203;-81
2021/11/14 07:15:36;;;;;;;22.87;16.50;;;;;;;9.27;100.00;95664.31;5013834;28;20214;-81
2021/11/14 07:18:02;;;;;;;20.20;15.63;;;;;;;9.27;100.00;95673.78;5013485;28;20209;-81
2021/11/14 07:20:29;;;;;;;22.73;17.00;;;;;;;9.23;100.00;95682.81;5013597;28;20226;-81
2021/11/14 07:22:56;;;;;;;20.67;16.97;;;;;;;9.24;100.00;95672.34;5013403;28;20275;-81
2021/11/14 07:25:22;;;;;;;23.43;17.17;;;;;;;9.21;100.00;95674.47;5013858;28;20269;-81
2021/11/14 07:27:53;;;;;;;23.17;16.90;;;;;;;9.23;100.00;95675.91;5013896;28;20210;-81
2021/11/14 07:30:22;;;;;;;22.00;16.87;;;;;;;9.26;100.00;95678.13;5014059;28;20221;-81
2021/11/14 07:32:49;;;;;;;22.20;16.97;;;;;;;9.27;100.00;95676.38;5013670;28;20229;-81
2021/11/14 07:35:17;;;;;;;22.30;16.80;;;;;;;9.29;100.00;95672.66;5022122;28;20573;-81
2021/11/14 07:37:44;;;;;;;22.20;17.20;;;;;;;9.27;100.00;95679.72;5032876;28;20198;-81
2021/11/14 07:40:14;;;;;;;20.03;16.27;;;;;;;9.24;100.00;95679.25;5033271;28;20597;-81
2021/11/14 07:42:44;;;;;;;20.73;16.00;;;;;;;9.23;100.00;95675.91;5033964;28;20204;-82
2021/11/14 07:45:14;;;;;;;20.63;16.37;;;;;;;9.18;100.00;95678.19;5033455;28;20230;-81
2021/11/14 07:47:40;;;;;;;19.57;16.43;;;;;;;9.14;100.00;95676.09;5033285;28;20209;-81
2021/11/14 07:50:09;;;;;;;18.40;15.93;;;;;;;8.99;100.00;95681.13;5033988;28;20709;-81
2021/11/14 07:52:35;;;;;;;22.30;17.17;;;;;;;8.91;100.00;95674.22;5033703;28;20660;-81
2021/11/14 07:55:03;;;;;;;24.40;16.83;;;;;;;8.93;100.00;95681.75;5034432;28;20745;-81
2021/11/14 07:57:29;;;;;;;20.67;17.43;;;;;;;8.98;100.00;95676.94;5033747;28;20198;-81
2021/11/14 07:59:55;;;;;;;20.20;16.37;;;;;;;9.05;100.00;95674.50;5033822;28;20599;-82
2021/11/14 08:02:23;;;;;;;20.73;15.90;;;;;;;9.10;100.00;95687.66;5019177;28;20221;-82
2021/11/14 08:04:50;;;;;;;22.47;15.97;;;;;;;9.11;100.00;95677.22;5014425;28;20206;-81
2021/11/14 08:07:16;;;;;;;22.87;17.50;;;;;;;9.04;100.00;95676.28;5014191;28;20213;-81
2021/11/14 08:09:43;;;;;;;21.83;16.57;;;;;;;9.04;100.00;95676.28;5014871;28;20223;-81
2021/11/14 08:12:10;;;;;;;22.40;16.93;;;;;;;8.93;100.00;95674.84;5014361;28;20237;-81
2021/11/14 08:14:36;;;;;;;22.77;17.13;;;;;;;8.96;100.00;95679.66;5014232;28;20218;-82
2021/11/14 08:17:03;;;;;;;21.43;17.10;;;;;;;9.01;100.00;95674.06;5014338;28;20207;-82
2021/11/14 08:19:31;;;;;;;21.50;16.07;;;;;;;9.06;100.00;95679.47;5014605;28;20218;-81
2021/11/14 08:21:57;;;;;;;21.83;17.27;;;;;;;9.11;100.00;95677.22;5014438;28;20568;-81
2021/11/14 08:24:24;;;;;;;22.13;17.50;;;;;;;9.15;100.00;95677.69;5016800;28;20214;-81
2021/11/14 08:26:50;;;;;;;21.83;17.23;;;;;;;9.11;100.00;95671.28;5017810;28;20590;-82
2021/11/14 08:29:17;;;;;;;23.33;17.30;;;;;;;9.14;100.00;95673.53;5017661;28;20733;-81
2021/11/14 08:31:43;;;;;;;22.67;17.43;;;;;;;9.12;100.00;95668.56;5017702;28;20222;-81
2021/11/14 08:34:10;;;;;;;22.67;17.23;;;;;;;9.16;100.00;95682.66;5017724;28;20203;-81
2021/11/14 08:36:38;;;;;;;26.67;20.50;;;;;;;9.08;99.80;95677.53;5017811;28;20202;-81
2021/11/14 08:39:05;;;;;;;24.67;18.93;;;;;;;9.08;100.00;95674.19;5017830;28;20860;-82
2021/11/14 08:41:31;;;;;;;24.03;18.47;;;;;;;9.12;100.00;95678.03;5017667;28;20202;-81
2021/11/14 08:43:58;;;;;;;25.57;19.47;;;;;;;9.17;99.94;95670.63;5017811;28;20237;-81
2021/11/14 08:46:24;;;;;;;23.97;18.60;;;;;;;9.22;99.63;95671.75;5018207;28;20745;-81
2021/11/14 08:48:51;;;;;;;24.70;19.73;;;;;;;9.26;99.15;95680.69;5017448;28;20222;-82
2021/11/14 08:51:18;;;;;;;24.23;18.90;;;;;;;9.15;97.76;95685.41;5016785;28;20366;-81
2021/11/14 08:53:46;;;;;;;23.53;18.33;;;;;;;9.06;98.19;95686.38;5017146;28;20206;-82
2021/11/14 08:56:13;;;;;;;24.20;19.17;;;;;;;9.11;98.73;95689.25;5016680;28;20233;-82
2021/11/14 08:58:39;;;;;;;26.27;19.67;;;;;;;9.03;97.84;95691.88;5017395;28;20274;-81
2021/11/14 09:01:08;;;;;;;23.97;19.60;;;;;;;9.10;98.76;95685.88;5017646;28;20234;-81
2021/11/14 09:03:35;;;;;;;28.07;20.90;;;;;;;9.11;98.53;95689.25;5017396;28;20206;-81
2021/11/14 09:06:02;;;;;;;27.17;19.40;;;;;;;9.16;98.02;95689.56;5017334;28;20207;-82
2021/11/14 09:08:29;;;;;;;24.97;18.30;;;;;;;9.04;97.62;95683.19;5017311;28;20222;-81
2021/11/14 09:10:57;;;;;;;25.40;19.97;;;;;;;9.06;97.24;95684.59;5016717;28;20242;-81
2021/11/14 09:13:26;;;;;;;25.67;19.43;;;;;;;9.16;97.68;95692.16;5016846;28;20219;-82
2021/11/14 09:15:53;;;;;;;24.10;18.57;;;;;;;9.17;97.16;95699.69;5017945;28;20198;-81
2021/11/14 09:18:20;;;;;;;22.60;18.77;;;;;;;9.20;96.94;95701.13;5016428;28;20207;-81
2021/11/14 09:20:47;;;;;;;22.70;17.23;;;;;;;9.14;96.02;95710.28;5017260;28;20226;-81
2021/11/14 09:23:14;;;;;;;23.70;18.30;;;;;;;9.07;96.50;95711.91;5016887;28;20203;-81
2021/11/14 09:25:41;;;;;;;23.07;17.63;;;;;;;8.86;96.66;95709.03;5016969;28;20211;-81
2021/11/14 09:28:09;;;;;;;24.17;18.57;;;;;;;8.71;98.00;95711.47;5016634;28;20207;-81
2021/11/14 09:30:36;;;;;;;23.33;18.43;;;;;;;8.81;98.95;95709.56;5016699;28;20595;-81
2021/11/14 09:33:03;;;;;;;26.00;18.90;;;;;;;8.64;100.00;95706.19;5016996;28;20219;-81
2021/11/14 09:35:30;;;;;;;23.97;17.93;;;;;;;8.78;100.00;95706.50;5026228;28;20190;-81
2021/11/14 09:37:57;;;;;;;24.27;18.53;;;;;;;8.82;100.00;95706.03;5036048;28;20209;-82
2021/11/14 09:40:23;;;;;;;23.53;18.43;;;;;;;8.91;99.28;95705.03;5036667;28;20249;-82
2021/11/14 09:42:50;;;;;;;20.80;17.77;;;;;;;9.05;98.39;95707.88;5036436;28;20733;-81
2021/11/14 09:45:18;;;;;;;20.27;16.53;;;;;;;9.07;97.67;95711.91;5035853;28;20202;-82
2021/11/14 09:47:45;;;;;;;20.17;16.63;;;;;;;9.00;96.75;95716.09;5036370;28;20671;-80
2021/11/14 09:50:12;;;;;;;20.33;16.67;;;;;;;8.86;95.72;95697.00;5036217;28;20221;-81
2021/11/14 09:52:39;;;;;;;20.70;17.13;;;;;;;8.87;97.87;95708.06;5035853;28;20230;-80
2021/11/14 09:55:09;;;;;;;24.10;16.40;;;;;;;8.93;97.69;95708.25;5038034;28;20206;-80
2021/11/14 09:57:35;;;;;;;20.67;15.73;;;;;;;8.96;98.99;95712.25;5037720;28;20202;-80
2021/11/14 10:00:02;;;;;;;21.33;16.03;;;;;;;8.96;100.00;95712.25;5016667;28;20771;-79
2021/11/14 10:02:30;;;;;;;37.67;31.10;;;;;;;8.99;97.60;95709.38;5015405;28;20203;-79
2021/11/14 10:04:57;;;;;;;23.67;18.70;;;;;;;8.92;95.59;95706.63;5014918;28;20215;-81
2021/11/14 10:07:23;;;;;;;19.97;16.93;;;;;;;8.94;97.56;95699.56;5015419;28;20203;-82
2021/11/14 10:09:53;;;;;;;18.23;15.07;;;;;;;8.99;97.91;95702.47;5014961;28;20659;-81
2021/11/14 10:12:21;;;;;;;17.23;14.63;;;;;;;9.08;97.62;95698.09;5014776;28;20261;-82
2021/11/14 10:14:52;;;;;;;16.17;13.93;;;;;;;9.13;96.53;95705.31;5015186;28;20210;-81
2021/11/14 10:17:22;;;;;;;17.33;14.17;;;;;;;9.15;96.28;95701.63;5014389;28;20202;-81
2021/11/14 10:20:16;;;;;;;23.20;18.77;;;;;;;9.12;96.39;95706.28;5015303;28;20740;-81
2021/11/14 10:23:08;;;;;;;18.90;15.70;;;;;;;9.00;96.69;95701.50;5014445;28;20203;-81
2021/11/14 10:25:35;;;;;;;17.43;13.57;;;;;;;8.96;96.94;95694.28;5014651;28;20221;-82
2021/11/14 10:28:16;;;;;;;16.17;13.17;;;;;;;8.94;96.96;95686.72;5015204;28;20203;-81
2021/11/14 10:30:58;;;;;;;16.20;13.50;;;;;;;8.99;97.49;95699.09;5015651;28;20219;-82
2021/11/14 10:33:27;;;;;;;15.00;11.83;;;;;;;8.96;97.24;95701.97;5015913;28;20226;-82
2021/11/14 10:36:03;;;;;;;14.97;12.30;;;;;;;8.91;98.65;95691.38;5016230;28;20199;-83
2021/11/14 10:38:45;;;;;;;;;;;;;;;;;;;;;
2021/11/14 10:41:37;;;;;;;12.93;9.93;;;;;;;9.55;97.42;95690.41;5011244;28;20278;-81
2021/11/14 10:44:15;;;;;;;12.10;10.53;;;;;;;9.64;93.38;95686.00;5007699;28;20249;-82
2021/11/14 10:46:45;;;;;;;14.53;11.33;;;;;;;9.41;94.65;95691.09;5014089;28;20203;-81
2021/11/14 10:49:12;;;;;;;12.97;10.80;;;;;;;9.27;95.34;95695.16;5014583;28;20219;-81
2021/11/14 10:51:40;;;;;;;15.00;12.53;;;;;;;9.33;96.03;95684.22;5013345;28;20234;-81
2021/11/14 10:54:10;;;;;;;14.27;11.83;;;;;;;9.35;96.02;95687.44;5012947;28;20222;-81
2021/11/14 10:56:38;;;;;;;15.83;11.40;;;;;;;9.18;94.91;95680.75;5013027;28;20248;-81
2021/11/14 10:59:34;;;;;;;;;;;;;;;;;;;;;
2021/11/14 11:13:12;;;;;;;15.47;11.17;;;;;;;8.60;99.36;95686.94;4903373;29;20230;-81
2021/11/14 11:16:25;;;;;;;13.67;11.73;;;;;;;8.71;99.93;95690.94;4894262;29;20195;-81
2021/11/14 11:19:41;;;;;;;13.97;11.83;;;;;;;8.79;98.70;95687.56;4821320;28;20339;-81
2021/11/14 11:25:40;;;;;;;13.63;11.33;;;;;;;8.54;99.18;95690.16;4952774;28;20249;-81
2021/11/14 11:28:09;;;;;;;18.63;12.30;;;;;;;8.55;98.99;95694.31;5012191;28;20191;-82
2021/11/14 11:30:38;;;;;;;16.47;13.50;;;;;;;8.46;98.48;95690.16;5011476;28;20276;-81
2021/11/14 11:33:05;;;;;;;13.87;11.00;;;;;;;8.32;99.69;95695.91;5011729;28;20215;-81
2021/11/14 11:35:32;;;;;;;13.17;11.13;;;;;;;8.23;98.71;95695.09;5022165;28;20677;-81
2021/11/14 11:37:59;;;;;;;12.67;10.40;;;;;;;8.25;98.21;95692.38;5018690;28;20199;-81
2021/11/14 11:40:26;;;;;;;11.83;10.03;;;;;;;8.17;97.80;95702.59;5010741;28;20226;-81
2021/11/14 11:42:55;;;;;;;13.87;10.37;;;;;;;8.25;97.57;95710.31;5010805;28;20195;-82
2021/11/14 11:45:31;;;;;;;11.77;10.13;;;;;;;8.30;97.11;95705.50;5011993;28;20306;-81
2021/11/14 11:51:33;;;;;;;12.27;10.90;;;;;;;8.11;96.30;95706.59;5141660;22;20610;-82
2021/11/14 11:57:33;;;;;;;13.43;9.63;;;;;;;8.04;95.63;95704.84;4958863;28;20219;-81
2021/11/14 12:03:48;;;;;;;12.30;10.00;;;;;;;8.17;95.90;95713.66;5036317;28;20194;-82
2021/11/14 12:13:49;;;;;;;13.43;10.13;;;;;;;8.29;94.66;95709.81;5058166;28;20225;-81
2021/11/14 12:48:43;;;;;;;13.07;11.70;;;;;;;7.94;95.87;95721.16;5010240;28;20219;-82
2021/11/14 12:55:36;;;;;;;14.80;13.03;;;;;;;8.01;96.57;95723.91;4900798;29;20873;-82
2021/11/14 13:01:45;;;;;;;20.50;17.33;;;;;;;8.15;95.99;95718.16;5513672;23;20817;-82
2021/11/14 13:04:24;;;;;;;16.23;13.90;;;;;;;8.08;95.26;95724.09;5004855;28;20198;-82
2021/11/14 13:06:53;;;;;;;14.33;12.57;;;;;;;8.07;95.35;95727.59;5003328;28;20203;-83